sensor_id;sensor_type;location;lat;lon;timestamp;pressure;altitude;pressure_sealevel;temperature;humidity
40245;BME280;25963;42.694;23.600;2023-03-20T00:01:24;95568.00;;;3.09;100.00
40245;BME280;25963;42.694;23.600;2023-03-20T00:03:51;95552.34;;;3.09;100.00
40245;BME280;25963;42.694;23.600;2023-03-20T00:06:18;95561.47;;;3.21;100.00
40245;BME280;25963;42.694;23.600;2023-03-20T00:08:46;95565.56;;;3.24;100.00
40245;BME280;25963;42.694;23.600;2023-03-20T00:13:59;95536.84;;;3.07;100.00
40245;BME280;25963;42.694;23.600;2023-03-20T00:16:29;95533.28;;;3.08;100.00
40245;BME280;25963;42.694;23.600;2023-03-20T00:18:56;95562.13;;;3.15;100.00
40245;BME280;25963;42.694;23.600;2023-03-20T00:21:22;95554.47;;;3.22;100.00
40245;BME280;25963;42.694;23.600;2023-03-20T00:23:47;95542.09;;;3.15;100.00
40245;BME280;25963;42.694;23.600;2023-03-20T00:26:15;95552.66;;;3.22;100.00
40245;BME280;25963;42.694;23.600;2023-03-20T00:28:46;95536.03;;;2.98;100.00
40245;BME280;25963;42.694;23.600;2023-03-20T00:31:31;95548.41;;;3.05;100.00
40245;BME280;25963;42.694;23.600;2023-03-20T00:33:59;95545.00;;;3.04;100.00
40245;BME280;25963;42.694;23.600;2023-03-20T00:36:25;95543.06;;;3.14;100.00
40245;BME280;25963;42.694;23.600;2023-03-20T00:38:51;95550.72;;;3.16;100.00
40245;BME280;25963;42.694;23.600;2023-03-20T00:41:32;95534.59;;;3.12;100.00
40245;BME280;25963;42.694;23.600;2023-03-20T00:46:41;95535.56;;;3.11;100.00
40245;BME280;25963;42.694;23.600;2023-03-20T00:49:09;95520.38;;;2.98;100.00
40245;BME280;25963;42.694;23.600;2023-03-20T00:51:36;95526.28;;;3.09;100.00
40245;BME280;25963;42.694;23.600;2023-03-20T00:54:09;95529.53;;;3.03;100.00
40245;BME280;25963;42.694;23.600;2023-03-20T00:56:42;95528.53;;;2.95;100.00
40245;BME280;25963;42.694;23.600;2023-03-20T00:59:17;95534.56;;;2.88;100.00
40245;BME280;25963;42.694;23.600;2023-03-20T01:01:43;95499.19;;;2.69;100.00
40245;BME280;25963;42.694;23.600;2023-03-20T01:04:15;95524.94;;;2.80;100.00
40245;BME280;25963;42.694;23.600;2023-03-20T01:06:41;95529.81;;;2.83;100.00
40245;BME280;25963;42.694;23.600;2023-03-20T01:09:07;95507.44;;;2.48;100.00
40245;BME280;25963;42.694;23.600;2023-03-20T01:11:33;95523.59;;;2.68;100.00
40245;BME280;25963;42.694;23.600;2023-03-20T01:13:58;95528.81;;;2.68;100.00
40245;BME280;25963;42.694;23.600;2023-03-20T01:16:25;95512.09;;;2.28;100.00
40245;BME280;25963;42.694;23.600;2023-03-20T01:18:52;95529.31;;;2.21;100.00
40245;BME280;25963;42.694;23.600;2023-03-20T01:21:19;95520.69;;;2.20;100.00
40245;BME280;25963;42.694;23.600;2023-03-20T01:23:46;95515.34;;;2.22;100.00
40245;BME280;25963;42.694;23.600;2023-03-20T01:28:45;95499.41;;;1.91;100.00
40245;BME280;25963;42.694;23.600;2023-03-20T01:31:13;95522.69;;;2.00;100.00
40245;BME280;25963;42.694;23.600;2023-03-20T01:33:38;95521.28;;;2.06;100.00
40245;BME280;25963;42.694;23.600;2023-03-20T01:36:04;95522.25;;;2.05;100.00
40245;BME280;25963;42.694;23.600;2023-03-20T01:38:29;95511.78;;;1.97;100.00
40245;BME280;25963;42.694;23.600;2023-03-20T01:41:15;95520.81;;;2.11;100.00
40245;BME280;25963;42.694;23.600;2023-03-20T01:43:41;95506.28;;;2.00;100.00
40245;BME280;25963;42.694;23.600;2023-03-20T01:51:13;95524.22;;;2.11;100.00
40245;BME280;25963;42.694;23.600;2023-03-20T01:53:39;95523.56;;;2.09;100.00
40245;BME280;25963;42.694;23.600;2023-03-20T01:56:05;95525.84;;;2.04;100.00
40245;BME280;25963;42.694;23.600;2023-03-20T01:58:34;95529.06;;;1.98;100.00
40245;BME280;25963;42.694;23.600;2023-03-20T02:01:02;95537.16;;;1.95;100.00
40245;BME280;25963;42.694;23.600;2023-03-20T02:03:28;95535.84;;;1.91;100.00
40245;BME280;25963;42.694;23.600;2023-03-20T02:05:54;95540.22;;;1.90;100.00
40245;BME280;25963;42.694;23.600;2023-03-20T02:08:26;95533.84;;;1.85;100.00
40245;BME280;25963;42.694;23.600;2023-03-20T02:10:53;95534.81;;;1.83;100.00
40245;BME280;25963;42.694;23.600;2023-03-20T02:13:20;95532.97;;;1.76;100.00
40245;BME280;25963;42.694;23.600;2023-03-20T02:16:12;95533.78;;;1.76;100.00
40245;BME280;25963;42.694;23.600;2023-03-20T02:18:39;95504.72;;;1.55;100.00
40245;BME280;25963;42.694;23.600;2023-03-20T02:30:17;95517.78;;;1.63;100.00
40245;BME280;25963;42.694;23.600;2023-03-20T02:43:17;95520.25;;;1.39;100.00
40245;BME280;25963;42.694;23.600;2023-03-20T02:48:38;95522.47;;;1.33;100.00
40245;BME280;25963;42.694;23.600;2023-03-20T02:56:36;95526.66;;;1.26;100.00
40245;BME280;25963;42.694;23.600;2023-03-20T03:02:08;95524.50;;;1.22;100.00
40245;BME280;25963;42.694;23.600;2023-03-20T03:04:45;95523.81;;;1.20;100.00
40245;BME280;25963;42.694;23.600;2023-03-20T03:07:13;95508.13;;;0.85;100.00
40245;BME280;25963;42.694;23.600;2023-03-20T03:09:49;95526.81;;;1.07;100.00
40245;BME280;25963;42.694;23.600;2023-03-20T03:12:19;95524.19;;;1.07;100.00
40245;BME280;25963;42.694;23.600;2023-03-20T03:14:46;95528.00;;;0.95;100.00
40245;BME280;25963;42.694;23.600;2023-03-20T03:17:15;95521.41;;;1.00;100.00
40245;BME280;25963;42.694;23.600;2023-03-20T03:19:46;95517.00;;;1.01;100.00
40245;BME280;25963;42.694;23.600;2023-03-20T03:22:14;95515.69;;;0.97;100.00
40245;BME280;25963;42.694;23.600;2023-03-20T03:24:45;95521.91;;;1.04;100.00
40245;BME280;25963;42.694;23.600;2023-03-20T03:27:39;95522.13;;;0.93;100.00
40245;BME280;25963;42.694;23.600;2023-03-20T03:30:17;95517.69;;;0.85;100.00
40245;BME280;25963;42.694;23.600;2023-03-20T03:33:07;95518.28;;;0.79;100.00
40245;BME280;25963;42.694;23.600;2023-03-20T03:35:34;95504.63;;;0.59;100.00
40245;BME280;25963;42.694;23.600;2023-03-20T03:46:24;95522.06;;;0.39;100.00
40245;BME280;25963;42.694;23.600;2023-03-20T03:48:55;95521.75;;;0.52;100.00
40245;BME280;25963;42.694;23.600;2023-03-20T03:51:28;95527.06;;;0.50;100.00
40245;BME280;25963;42.694;23.600;2023-03-20T03:54:03;95511.88;;;0.37;100.00
40245;BME280;25963;42.694;23.600;2023-03-20T03:56:33;95515.13;;;0.39;100.00
40245;BME280;25963;42.694;23.600;2023-03-20T03:59:03;95511.56;;;0.40;100.00
40245;BME280;25963;42.694;23.600;2023-03-20T04:01:31;95521.22;;;0.48;100.00
40245;BME280;25963;42.694;23.600;2023-03-20T04:04:03;95522.91;;;0.39;100.00
40245;BME280;25963;42.694;23.600;2023-03-20T04:06:30;95520.31;;;0.39;100.00
40245;BME280;25963;42.694;23.600;2023-03-20T04:08:56;95512.38;;;0.41;100.00
40245;BME280;25963;42.694;23.600;2023-03-20T04:11:23;95508.34;;;0.29;100.00
40245;BME280;25963;42.694;23.600;2023-03-20T04:13:51;95511.69;;;0.21;100.00
40245;BME280;25963;42.694;23.600;2023-03-20T04:16:17;95507.16;;;0.23;100.00
40245;BME280;25963;42.694;23.600;2023-03-20T04:18:44;95496.50;;;-0.02;100.00
40245;BME280;25963;42.694;23.600;2023-03-20T04:21:10;95515.47;;;-0.01;100.00
40245;BME280;25963;42.694;23.600;2023-03-20T04:23:36;95499.97;;;-0.11;100.00
40245;BME280;25963;42.694;23.600;2023-03-20T04:26:03;95517.66;;;0.04;100.00
40245;BME280;25963;42.694;23.600;2023-03-20T04:28:28;95521.56;;;0.08;100.00
40245;BME280;25963;42.694;23.600;2023-03-20T04:30:56;95516.78;;;0.13;100.00
40245;BME280;25963;42.694;23.600;2023-03-20T04:33:23;95515.69;;;0.15;100.00
40245;BME280;25963;42.694;23.600;2023-03-20T04:35:48;95480.53;;;-0.07;100.00
40245;BME280;25963;42.694;23.600;2023-03-20T04:38:16;95496.03;;;0.13;100.00
40245;BME280;25963;42.694;23.600;2023-03-20T04:40:43;95505.81;;;0.19;100.00
40245;BME280;25963;42.694;23.600;2023-03-20T04:43:08;95508.81;;;0.24;100.00
40245;BME280;25963;42.694;23.600;2023-03-20T04:45:34;95507.09;;;0.33;100.00
40245;BME280;25963;42.694;23.600;2023-03-20T04:47:59;95478.19;;;0.28;100.00
40245;BME280;25963;42.694;23.600;2023-03-20T04:50:25;95499.03;;;0.54;100.00
40245;BME280;25963;42.694;23.600;2023-03-20T04:52:50;95508.72;;;0.79;100.00
40245;BME280;25963;42.694;23.600;2023-03-20T04:55:16;95512.41;;;0.95;100.00
40245;BME280;25963;42.694;23.600;2023-03-20T04:57:41;95520.56;;;1.18;100.00
40245;BME280;25963;42.694;23.600;2023-03-20T05:00:07;95509.22;;;1.45;100.00
40245;BME280;25963;42.694;23.600;2023-03-20T05:02:32;95520.94;;;2.01;100.00
40245;BME280;25963;42.694;23.600;2023-03-20T05:04:58;95525.34;;;2.51;100.00
40245;BME280;25963;42.694;23.600;2023-03-20T05:07:23;95522.69;;;3.02;100.00
40245;BME280;25963;42.694;23.600;2023-03-20T05:09:49;95519.28;;;3.50;100.00
40245;BME280;25963;42.694;23.600;2023-03-20T05:12:15;95527.34;;;3.80;100.00
40245;BME280;25963;42.694;23.600;2023-03-20T05:14:41;95507.94;;;3.82;100.00
40245;BME280;25963;42.694;23.600;2023-03-20T05:17:06;95529.22;;;4.19;100.00
40245;BME280;25963;42.694;23.600;2023-03-20T05:19:32;95530.78;;;4.36;100.00
40245;BME280;25963;42.694;23.600;2023-03-20T05:21:57;95529.94;;;4.44;99.28
40245;BME280;25963;42.694;23.600;2023-03-20T05:24:22;95535.59;;;4.64;97.52
40245;BME280;25963;42.694;23.600;2023-03-20T05:26:48;95537.44;;;4.78;97.95
40245;BME280;25963;42.694;23.600;2023-03-20T05:29:13;95513.91;;;4.78;96.76
40245;BME280;25963;42.694;23.600;2023-03-20T05:31:39;95535.94;;;5.15;95.39
40245;BME280;25963;42.694;23.600;2023-03-20T05:34:05;95543.44;;;5.56;93.61
40245;BME280;25963;42.694;23.600;2023-03-20T05:36:30;95541.88;;;5.84;92.04
40245;BME280;25963;42.694;23.600;2023-03-20T05:38:56;95544.00;;;6.04;90.34
40245;BME280;25963;42.694;23.600;2023-03-20T05:41:22;95543.56;;;6.15;88.65
40245;BME280;25963;42.694;23.600;2023-03-20T05:43:47;95535.06;;;6.28;88.39
40245;BME280;25963;42.694;23.600;2023-03-20T05:46:13;95543.56;;;6.45;87.37
40245;BME280;25963;42.694;23.600;2023-03-20T05:48:38;95546.97;;;6.60;87.22
40245;BME280;25963;42.694;23.600;2023-03-20T05:51:04;95545.94;;;6.76;86.58
40245;BME280;25963;42.694;23.600;2023-03-20T05:53:30;95549.28;;;6.84;86.73
40245;BME280;25963;42.694;23.600;2023-03-20T05:55:55;95548.19;;;6.94;85.60
40245;BME280;25963;42.694;23.600;2023-03-20T05:58:21;95549.19;;;7.14;86.62
40245;BME280;25963;42.694;23.600;2023-03-20T06:00:47;95529.59;;;7.31;87.69
40245;BME280;25963;42.694;23.600;2023-03-20T06:03:12;95541.56;;;7.62;84.79
40245;BME280;25963;42.694;23.600;2023-03-20T06:05:37;95541.06;;;7.73;80.55
40245;BME280;25963;42.694;23.600;2023-03-20T06:08:03;95530.81;;;7.78;80.48
40245;BME280;25963;42.694;23.600;2023-03-20T06:10:29;95561.28;;;8.01;80.43
40245;BME280;25963;42.694;23.600;2023-03-20T06:12:56;95553.38;;;8.01;77.64
40245;BME280;25963;42.694;23.600;2023-03-20T06:15:25;95560.56;;;8.14;79.71
40245;BME280;25963;42.694;23.600;2023-03-20T06:17:51;95550.38;;;8.04;77.74
40245;BME280;25963;42.694;23.600;2023-03-20T06:20:16;95554.72;;;8.18;80.58
40245;BME280;25963;42.694;23.600;2023-03-20T06:22:42;95545.81;;;8.19;78.48
40245;BME280;25963;42.694;23.600;2023-03-20T06:25:08;95548.72;;;8.31;76.38
40245;BME280;25963;42.694;23.600;2023-03-20T06:27:34;95554.34;;;8.50;76.68
40245;BME280;25963;42.694;23.600;2023-03-20T06:29:59;95552.81;;;8.68;80.02
40245;BME280;25963;42.694;23.600;2023-03-20T06:32:25;95539.25;;;8.72;77.02
40245;BME280;25963;42.694;23.600;2023-03-20T06:34:51;95551.25;;;8.87;79.34
40245;BME280;25963;42.694;23.600;2023-03-20T06:37:17;95557.31;;;8.88;76.11
40245;BME280;25963;42.694;23.600;2023-03-20T06:39:43;95556.88;;;8.78;76.13
40245;BME280;25963;42.694;23.600;2023-03-20T06:42:08;95544.31;;;8.73;75.93
40245;BME280;25963;42.694;23.600;2023-03-20T06:44:33;95560.50;;;8.70;76.83
40245;BME280;25963;42.694;23.600;2023-03-20T06:46:59;95557.50;;;8.80;75.32
40245;BME280;25963;42.694;23.600;2023-03-20T06:49:24;95547.44;;;8.97;76.38
40245;BME280;25963;42.694;23.600;2023-03-20T06:51:50;95546.00;;;8.94;82.42
40245;BME280;25963;42.694;23.600;2023-03-20T06:54:15;95552.38;;;9.13;79.13
40245;BME280;25963;42.694;23.600;2023-03-20T06:56:41;95543.66;;;9.19;76.64
40245;BME280;25963;42.694;23.600;2023-03-20T06:59:06;95551.16;;;9.16;72.29
40245;BME280;25963;42.694;23.600;2023-03-20T07:01:32;95551.19;;;9.29;75.45
40245;BME280;25963;42.694;23.600;2023-03-20T07:03:58;95546.09;;;9.21;76.39
40245;BME280;25963;42.694;23.600;2023-03-20T07:06:23;95545.91;;;9.16;74.70
40245;BME280;25963;42.694;23.600;2023-03-20T07:08:49;95537.19;;;9.22;75.91
40245;BME280;25963;42.694;23.600;2023-03-20T07:11:16;95537.41;;;9.27;72.89
40245;BME280;25963;42.694;23.600;2023-03-20T07:13:43;95538.59;;;9.11;72.89
40245;BME280;25963;42.694;23.600;2023-03-20T07:16:09;95537.78;;;9.10;74.51
40245;BME280;25963;42.694;23.600;2023-03-20T07:18:35;95525.81;;;9.01;77.19
40245;BME280;25963;42.694;23.600;2023-03-20T07:21:03;95532.34;;;9.19;78.08
40245;BME280;25963;42.694;23.600;2023-03-20T07:23:29;95503.16;;;9.13;76.61
40245;BME280;25963;42.694;23.600;2023-03-20T07:25:56;95538.25;;;9.47;75.66
40245;BME280;25963;42.694;23.600;2023-03-20T07:28:22;95534.41;;;9.63;82.64
40245;BME280;25963;42.694;23.600;2023-03-20T07:30:47;95527.72;;;9.74;79.92
40245;BME280;25963;42.694;23.600;2023-03-20T07:33:13;95539.47;;;9.98;73.89
40245;BME280;25963;42.694;23.600;2023-03-20T07:35:38;95540.69;;;10.09;68.87
40245;BME280;25963;42.694;23.600;2023-03-20T07:38:04;95538.44;;;10.19;74.95
40245;BME280;25963;42.694;23.600;2023-03-20T07:40:31;95517.16;;;10.07;78.49
40245;BME280;25963;42.694;23.600;2023-03-20T07:42:56;95527.69;;;10.20;74.16
40245;BME280;25963;42.694;23.600;2023-03-20T07:45:22;95529.50;;;10.20;78.06
40245;BME280;25963;42.694;23.600;2023-03-20T07:47:48;95529.31;;;10.28;68.70
40245;BME280;25963;42.694;23.600;2023-03-20T07:50:13;95512.69;;;10.27;65.79
40245;BME280;25963;42.694;23.600;2023-03-20T07:52:39;95529.53;;;10.26;65.26
40245;BME280;25963;42.694;23.600;2023-03-20T07:55:05;95525.88;;;10.14;67.69
40245;BME280;25963;42.694;23.600;2023-03-20T07:57:32;95530.31;;;10.34;64.84
40245;BME280;25963;42.694;23.600;2023-03-20T07:59:57;95529.47;;;10.53;66.52
40245;BME280;25963;42.694;23.600;2023-03-20T08:02:22;95522.47;;;10.79;70.83
40245;BME280;25963;42.694;23.600;2023-03-20T08:04:48;95518.66;;;11.13;75.66
40245;BME280;25963;42.694;23.600;2023-03-20T08:07:13;95498.91;;;11.22;67.16
40245;BME280;25963;42.694;23.600;2023-03-20T08:09:39;95501.38;;;11.49;66.97
40245;BME280;25963;42.694;23.600;2023-03-20T08:12:04;95517.41;;;11.79;65.50
40245;BME280;25963;42.694;23.600;2023-03-20T08:14:30;95521.47;;;11.75;66.02
40245;BME280;25963;42.694;23.600;2023-03-20T08:16:56;95502.44;;;11.66;63.22
40245;BME280;25963;42.694;23.600;2023-03-20T08:19:22;95529.50;;;11.93;71.11
40245;BME280;25963;42.694;23.600;2023-03-20T08:21:48;95523.44;;;12.11;69.19
40245;BME280;25963;42.694;23.600;2023-03-20T08:24:14;95529.84;;;12.22;61.35
40245;BME280;25963;42.694;23.600;2023-03-20T08:26:39;95524.66;;;12.33;64.52
40245;BME280;25963;42.694;23.600;2023-03-20T08:29:05;95518.56;;;12.51;63.90
40245;BME280;25963;42.694;23.600;2023-03-20T08:31:31;95511.88;;;12.67;67.38
40245;BME280;25963;42.694;23.600;2023-03-20T08:33:57;95523.25;;;12.49;61.40
40245;BME280;25963;42.694;23.600;2023-03-20T08:36:23;95516.28;;;12.55;61.66
40245;BME280;25963;42.694;23.600;2023-03-20T08:38:49;95522.09;;;12.82;63.82
40245;BME280;25963;42.694;23.600;2023-03-20T08:41:15;95515.91;;;12.88;65.11
40245;BME280;25963;42.694;23.600;2023-03-20T08:43:40;95526.72;;;12.68;58.91
40245;BME280;25963;42.694;23.600;2023-03-20T08:46:06;95523.63;;;12.90;63.35
40245;BME280;25963;42.694;23.600;2023-03-20T08:48:32;95514.47;;;13.04;67.40
40245;BME280;25963;42.694;23.600;2023-03-20T08:50:58;95509.00;;;13.17;67.07
40245;BME280;25963;42.694;23.600;2023-03-20T08:53:23;95505.78;;;13.45;63.85
40245;BME280;25963;42.694;23.600;2023-03-20T08:55:50;95498.59;;;13.76;65.60
40245;BME280;25963;42.694;23.600;2023-03-20T08:58:16;95497.75;;;13.52;58.84
40245;BME280;25963;42.694;23.600;2023-03-20T09:00:42;95493.97;;;13.72;55.81
40245;BME280;25963;42.694;23.600;2023-03-20T09:03:12;95489.16;;;13.92;60.44
40245;BME280;25963;42.694;23.600;2023-03-20T09:05:49;95487.53;;;13.91;57.05
40245;BME280;25963;42.694;23.600;2023-03-20T09:08:15;95489.16;;;14.15;63.01
40245;BME280;25963;42.694;23.600;2023-03-20T09:10:41;95483.25;;;14.25;67.14
40245;BME280;25963;42.694;23.600;2023-03-20T09:13:07;95470.19;;;14.35;63.32
40245;BME280;25963;42.694;23.600;2023-03-20T09:15:33;95472.72;;;14.66;66.60
40245;BME280;25963;42.694;23.600;2023-03-20T09:17:58;95477.25;;;14.94;60.27
40245;BME280;25963;42.694;23.600;2023-03-20T09:20:24;95471.91;;;15.05;51.92
40245;BME280;25963;42.694;23.600;2023-03-20T09:22:50;95464.06;;;15.27;52.33
40245;BME280;25963;42.694;23.600;2023-03-20T09:25:15;95461.81;;;15.36;59.68
40245;BME280;25963;42.694;23.600;2023-03-20T09:27:41;95461.91;;;15.58;60.23
40245;BME280;25963;42.694;23.600;2023-03-20T09:30:10;95453.47;;;15.78;52.78
40245;BME280;25963;42.694;23.600;2023-03-20T09:32:35;95435.97;;;15.82;54.94
40245;BME280;25963;42.694;23.600;2023-03-20T09:35:02;95452.09;;;15.92;47.58
40245;BME280;25963;42.694;23.600;2023-03-20T09:37:28;95413.91;;;15.65;53.41
40245;BME280;25963;42.694;23.600;2023-03-20T09:39:54;95442.19;;;16.05;56.07
40245;BME280;25963;42.694;23.600;2023-03-20T09:42:44;95428.84;;;16.22;54.56
40245;BME280;25963;42.694;23.600;2023-03-20T09:45:36;95418.81;;;16.51;55.21
40245;BME280;25963;42.694;23.600;2023-03-20T09:53:17;95386.41;;;16.59;50.33
40245;BME280;25963;42.694;23.600;2023-03-20T09:55:45;95402.31;;;16.98;50.39
40245;BME280;25963;42.694;23.600;2023-03-20T10:00:39;95396.88;;;17.47;48.35
40245;BME280;25963;42.694;23.600;2023-03-20T10:03:19;95393.69;;;17.45;44.81
40245;BME280;25963;42.694;23.600;2023-03-20T10:05:50;95384.25;;;17.69;49.94
40245;BME280;25963;42.694;23.600;2023-03-20T10:08:22;95379.47;;;17.71;45.18
40245;BME280;25963;42.694;23.600;2023-03-20T10:19:28;95347.19;;;18.10;39.69
40245;BME280;25963;42.694;23.600;2023-03-20T10:22:21;95337.72;;;18.50;42.23
40245;BME280;25963;42.694;23.600;2023-03-20T10:27:43;95328.72;;;18.87;38.62
40245;BME280;25963;42.694;23.600;2023-03-20T10:30:31;95328.22;;;19.05;40.42
40245;BME280;25963;42.694;23.600;2023-03-20T10:35:41;95318.88;;;19.03;41.36
40245;BME280;25963;42.694;23.600;2023-03-20T10:40:54;95308.44;;;18.96;45.19
40245;BME280;25963;42.694;23.600;2023-03-20T10:43:35;95303.38;;;19.15;38.45
40245;BME280;25963;42.694;23.600;2023-03-20T10:46:13;95307.09;;;19.19;36.00
40245;BME280;25963;42.694;23.600;2023-03-20T10:48:46;95303.63;;;19.34;37.34
40245;BME280;25963;42.694;23.600;2023-03-20T10:51:17;95314.06;;;19.51;39.36
40245;BME280;25963;42.694;23.600;2023-03-20T10:53:47;95310.00;;;19.58;36.96
40245;BME280;25963;42.694;23.600;2023-03-20T10:56:35;95296.66;;;19.53;39.52
40245;BME280;25963;42.694;23.600;2023-03-20T10:59:21;95291.25;;;19.84;38.25
40245;BME280;25963;42.694;23.600;2023-03-20T11:01:47;95294.44;;;19.86;37.70
40245;BME280;25963;42.694;23.600;2023-03-20T11:04:12;95281.03;;;20.01;36.50
40245;BME280;25963;42.694;23.600;2023-03-20T11:06:48;95276.34;;;20.27;37.34
40245;BME280;25963;42.694;23.600;2023-03-20T11:09:21;95271.34;;;20.11;35.46
40245;BME280;25963;42.694;23.600;2023-03-20T11:11:50;95275.88;;;20.15;34.69
40245;BME280;25963;42.694;23.600;2023-03-20T11:14:19;95265.22;;;20.05;32.18
40245;BME280;25963;42.694;23.600;2023-03-20T11:16:53;95260.00;;;20.34;32.19
40245;BME280;25963;42.694;23.600;2023-03-20T11:19:20;95259.09;;;20.54;35.03
40245;BME280;25963;42.694;23.600;2023-03-20T11:21:47;95261.97;;;20.68;34.61
40245;BME280;25963;42.694;23.600;2023-03-20T11:24:40;95255.63;;;20.88;33.01
40245;BME280;25963;42.694;23.600;2023-03-20T11:27:11;95243.00;;;20.93;33.36
40245;BME280;25963;42.694;23.600;2023-03-20T11:29:39;95239.72;;;21.02;32.65
40245;BME280;25963;42.694;23.600;2023-03-20T11:34:52;95240.81;;;21.01;28.59
40245;BME280;25963;42.694;23.600;2023-03-20T11:37:25;95237.06;;;20.96;32.49
40245;BME280;25963;42.694;23.600;2023-03-20T11:40:10;95224.44;;;20.68;27.32
40245;BME280;25963;42.694;23.600;2023-03-20T11:42:38;95222.41;;;20.89;28.17
40245;BME280;25963;42.694;23.600;2023-03-20T11:45:37;95218.16;;;21.12;32.68
40245;BME280;25963;42.694;23.600;2023-03-20T11:48:03;95215.03;;;21.34;29.79
40245;BME280;25963;42.694;23.600;2023-03-20T11:50:35;95212.94;;;21.26;27.52
40245;BME280;25963;42.694;23.600;2023-03-20T11:53:04;95209.31;;;21.11;27.76
40245;BME280;25963;42.694;23.600;2023-03-20T11:55:42;95201.47;;;21.49;33.40
40245;BME280;25963;42.694;23.600;2023-03-20T11:58:14;95208.31;;;21.36;31.59
40245;BME280;25963;42.694;23.600;2023-03-20T12:00:41;95201.19;;;21.51;30.45
40245;BME280;25963;42.694;23.600;2023-03-20T12:06:14;95170.28;;;21.77;29.77
40245;BME280;25963;42.694;23.600;2023-03-20T12:08:42;95180.75;;;21.98;31.87
40245;BME280;25963;42.694;23.600;2023-03-20T12:11:23;95176.47;;;21.78;26.38
40245;BME280;25963;42.694;23.600;2023-03-20T12:13:57;95164.06;;;22.01;28.11
40245;BME280;25963;42.694;23.600;2023-03-20T12:16:26;95170.22;;;22.01;31.53
40245;BME280;25963;42.694;23.600;2023-03-20T12:18:56;95168.72;;;22.14;26.35
40245;BME280;25963;42.694;23.600;2023-03-20T12:21:31;95166.88;;;22.33;29.40
40245;BME280;25963;42.694;23.600;2023-03-20T12:24:03;95168.75;;;22.33;27.27
40245;BME280;25963;42.694;23.600;2023-03-20T12:29:54;95155.97;;;22.44;25.24
40245;BME280;25963;42.694;23.600;2023-03-20T12:32:33;95152.59;;;22.52;27.45
40245;BME280;25963;42.694;23.600;2023-03-20T12:37:31;95141.06;;;22.84;30.90
40245;BME280;25963;42.694;23.600;2023-03-20T12:39:59;95132.53;;;22.63;26.35
40245;BME280;25963;42.694;23.600;2023-03-20T12:45:04;95130.63;;;22.83;25.82
40245;BME280;25963;42.694;23.600;2023-03-20T12:50:40;95135.03;;;22.60;26.30
40245;BME280;25963;42.694;23.600;2023-03-20T13:06:14;95109.28;;;23.19;28.41
40245;BME280;25963;42.694;23.600;2023-03-20T13:21:53;95087.03;;;23.41;26.39
40245;BME280;25963;42.694;23.600;2023-03-20T13:24:45;95094.13;;;23.37;25.49
40245;BME280;25963;42.694;23.600;2023-03-20T13:36:02;95082.56;;;23.22;24.02
40245;BME280;25963;42.694;23.600;2023-03-20T13:38:39;95074.31;;;23.19;22.24
40245;BME280;25963;42.694;23.600;2023-03-20T13:41:07;95063.31;;;23.15;23.25
40245;BME280;25963;42.694;23.600;2023-03-20T13:43:40;95053.66;;;23.14;23.83
40245;BME280;25963;42.694;23.600;2023-03-20T13:46:15;95058.94;;;23.06;23.33
40245;BME280;25963;42.694;23.600;2023-03-20T13:48:43;95056.53;;;23.18;23.49
40245;BME280;25963;42.694;23.600;2023-03-20T13:54:16;95048.47;;;23.45;23.56
40245;BME280;25963;42.694;23.600;2023-03-20T14:05:11;95037.13;;;23.07;21.21
40245;BME280;25963;42.694;23.600;2023-03-20T14:07:42;95035.28;;;22.75;21.79
40245;BME280;25963;42.694;23.600;2023-03-20T14:12:58;95024.94;;;22.68;24.83
40245;BME280;25963;42.694;23.600;2023-03-20T14:15:27;95023.22;;;22.72;23.41
40245;BME280;25963;42.694;23.600;2023-03-20T14:17:56;95024.81;;;22.73;24.21
40245;BME280;25963;42.694;23.600;2023-03-20T14:20:29;95027.31;;;22.70;23.92
40245;BME280;25963;42.694;23.600;2023-03-20T14:22:56;95030.38;;;22.63;23.60
40245;BME280;25963;42.694;23.600;2023-03-20T14:25:22;95022.84;;;22.65;23.53
40245;BME280;25963;42.694;23.600;2023-03-20T14:28:27;95020.72;;;22.62;23.56
40245;BME280;25963;42.694;23.600;2023-03-20T14:31:30;95017.34;;;22.56;24.50
40245;BME280;25963;42.694;23.600;2023-03-20T14:34:06;95016.91;;;22.49;23.21
40245;BME280;25963;42.694;23.600;2023-03-20T14:36:43;95009.06;;;22.53;22.69
40245;BME280;25963;42.694;23.600;2023-03-20T14:45:46;94997.22;;;22.54;24.30
40245;BME280;25963;42.694;23.600;2023-03-20T14:50:37;94999.09;;;22.40;21.64
40245;BME280;25963;42.694;23.600;2023-03-20T14:53:13;95001.44;;;22.27;21.25
40245;BME280;25963;42.694;23.600;2023-03-20T14:58:34;94990.94;;;22.45;23.77
40245;BME280;25963;42.694;23.600;2023-03-20T15:01:04;94990.84;;;22.50;24.05
40245;BME280;25963;42.694;23.600;2023-03-20T15:03:30;94978.88;;;22.42;23.45
40245;BME280;25963;42.694;23.600;2023-03-20T15:05:58;94984.56;;;22.41;23.99
40245;BME280;25963;42.694;23.600;2023-03-20T15:08:29;94997.00;;;22.37;24.90
40245;BME280;25963;42.694;23.600;2023-03-20T15:10:58;94990.69;;;22.27;23.53
40245;BME280;25963;42.694;23.600;2023-03-20T15:13:26;95001.44;;;22.27;24.63
40245;BME280;25963;42.694;23.600;2023-03-20T15:15:54;95001.03;;;22.20;24.45
40245;BME280;25963;42.694;23.600;2023-03-20T15:18:21;95004.22;;;22.03;23.67
40245;BME280;25963;42.694;23.600;2023-03-20T15:20:48;95006.94;;;21.84;23.77
40245;BME280;25963;42.694;23.600;2023-03-20T15:23:13;95002.53;;;21.56;24.42
40245;BME280;25963;42.694;23.600;2023-03-20T15:25:41;94996.41;;;21.31;23.54
40245;BME280;25963;42.694;23.600;2023-03-20T15:28:19;94999.13;;;21.26;24.75
40245;BME280;25963;42.694;23.600;2023-03-20T15:30:48;95002.81;;;21.11;24.81
40245;BME280;25963;42.694;23.600;2023-03-20T15:33:29;94998.50;;;20.91;25.98
40245;BME280;25963;42.694;23.600;2023-03-20T15:35:56;95007.53;;;20.77;26.22
40245;BME280;25963;42.694;23.600;2023-03-20T15:38:26;95000.94;;;20.64;26.67